createdAt,value
2018-04-22T00:00:15.177Z,3.30
2018-04-22T00:02:41.921Z,3.30
2018-04-22T08:15:18.205Z,21.80
2018-04-22T08:35:48.539Z,26.30
2018-04-22T08:38:16.022Z,23.00
2018-04-22T08:40:42.769Z,22.90
2018-04-22T08:43:09.517Z,20.30
2018-04-22T08:51:30.235Z,22.30
2018-04-22T08:53:57.816Z,22.70
2018-04-22T08:56:26.663Z,21.10
2018-04-22T08:58:53.852Z,18.90
2018-04-22T09:01:20.697Z,19.80
2018-04-22T09:03:47.548Z,20.80
2018-04-22T09:06:14.296Z,19.20
2018-04-22T09:08:41.040Z,19.10
2018-04-22T09:11:07.786Z,19.00
2018-04-22T09:13:34.939Z,19.20
2018-04-22T09:16:01.693Z,18.00
2018-04-22T09:18:28.412Z,17.10
2018-04-22T09:20:55.871Z,17.20
2018-04-22T09:23:23.360Z,17.30
2018-04-22T09:25:50.082Z,17.30
2018-04-22T09:28:17.671Z,17.90
2018-04-22T09:30:44.415Z,17.90
2018-04-22T09:33:11.153Z,18.10
2018-04-22T09:35:37.917Z,18.20
2018-04-22T09:38:04.571Z,17.40
2018-04-22T09:40:31.249Z,17.20
2018-04-22T09:42:58.045Z,16.80
2018-04-22T09:45:24.792Z,16.60
2018-04-22T09:47:51.510Z,16.60
2018-04-22T09:50:19.103Z,16.20
2018-04-22T09:52:45.953Z,16.20
2018-04-22T09:55:12.902Z,15.80
2018-04-22T09:57:39.622Z,15.30
2018-04-22T10:00:07.214Z,16.80
2018-04-22T10:02:33.960Z,16.70
2018-04-22T10:05:06.742Z,17.10
2018-04-22T10:07:33.495Z,16.00
2018-04-22T10:10:00.236Z,15.40
2018-04-22T10:12:26.980Z,14.40
2018-04-22T10:14:53.728Z,14.70
2018-04-22T10:17:20.398Z,15.20
2018-04-22T10:19:47.324Z,15.60
2018-04-22T10:22:14.173Z,16.40
2018-04-22T10:24:40.891Z,16.60
2018-04-22T10:27:07.740Z,16.20
2018-04-22T10:29:35.433Z,16.40
2018-04-22T10:32:02.184Z,16.30
2018-04-22T10:34:28.929Z,16.30
2018-04-22T10:36:56.001Z,15.80
2018-04-22T10:39:23.890Z,15.30
2018-04-22T10:41:52.113Z,16.40
2018-04-22T10:44:19.802Z,16.40
2018-04-22T10:46:46.561Z,16.40
2018-04-22T10:49:13.293Z,16.50
2018-04-22T10:51:40.044Z,16.50
2018-04-22T10:54:06.787Z,16.00
2018-04-22T10:56:33.531Z,15.90
2018-04-22T10:59:00.278Z,16.30
2018-04-22T11:01:27.129Z,16.10
2018-04-22T11:03:53.974Z,16.00
2018-04-22T11:06:20.825Z,16.30
2018-04-22T11:08:47.573Z,16.00
2018-04-22T11:11:14.320Z,16.00
2018-04-22T11:13:41.679Z,15.40
2018-04-22T11:16:08.424Z,15.60
2018-04-22T11:18:35.062Z,15.80
2018-04-22T11:21:01.815Z,16.00
2018-04-22T11:23:28.765Z,16.10
2018-04-22T11:25:55.508Z,16.50
2018-04-22T11:28:22.260Z,16.00
2018-04-22T11:30:49.001Z,15.40
2018-04-22T11:33:15.856Z,14.90
2018-04-22T11:35:42.556Z,15.00
2018-04-22T11:38:09.343Z,15.10
2018-04-22T11:40:36.157Z,15.30
2018-04-22T11:43:02.943Z,14.90
2018-04-22T11:45:29.685Z,14.60
2018-04-22T11:47:57.470Z,14.30
2018-04-22T11:50:24.414Z,14.10
2018-04-22T11:52:51.152Z,14.80
2018-04-22T11:55:18.310Z,15.00
2018-04-22T11:57:45.055Z,15.80
2018-04-22T12:00:12.008Z,16.30
2018-04-22T12:02:45.905Z,16.70
2018-04-22T12:05:14.607Z,16.30
2018-04-22T12:07:41.459Z,16.30
2018-04-22T12:10:08.612Z,15.70
2018-04-22T12:12:35.413Z,14.30
2018-04-22T12:15:02.203Z,14.10
2018-04-22T12:17:28.951Z,14.20
2018-04-22T12:19:55.697Z,14.40
2018-04-22T12:22:22.444Z,14.30
2018-04-22T12:24:49.189Z,14.10
2018-04-22T12:27:15.937Z,13.70
2018-04-22T12:29:42.889Z,13.60
2018-04-22T12:32:10.450Z,14.40
2018-04-22T12:34:37.201Z,14.40
2018-04-22T12:37:03.946Z,14.70
2018-04-22T12:39:31.533Z,15.30
2018-04-22T12:41:59.277Z,15.80
2018-04-22T12:44:26.129Z,15.80
2018-04-22T12:46:52.850Z,15.90
2018-04-22T12:49:19.619Z,15.90
2018-04-22T12:51:46.368Z,16.10
2018-04-22T12:54:13.494Z,16.20
2018-04-22T12:56:40.985Z,16.30
2018-04-22T12:59:08.246Z,16.20
2018-04-22T13:01:35.963Z,16.10
2018-04-22T13:04:02.760Z,15.40
2018-04-22T13:06:29.504Z,15.30
2018-04-22T13:08:56.254Z,15.20
2018-04-22T13:11:22.997Z,14.70
2018-04-22T13:13:50.369Z,14.90
2018-04-22T13:16:17.924Z,14.50
2018-04-22T13:18:45.831Z,14.70
2018-04-22T13:21:13.052Z,14.80
2018-04-22T13:23:40.221Z,14.50
2018-04-22T13:26:07.977Z,15.30
2018-04-22T13:28:35.137Z,15.20
2018-04-22T13:31:03.314Z,15.90
2018-04-22T13:33:31.697Z,15.80
2018-04-22T13:35:58.570Z,15.80
2018-04-22T13:38:25.779Z,15.70
2018-04-22T13:40:53.892Z,15.10
2018-04-22T13:43:21.833Z,15.10
2018-04-22T13:45:49.827Z,14.70
2018-04-22T13:48:17.597Z,14.70
2018-04-22T13:50:44.860Z,14.40
2018-04-22T13:53:11.808Z,14.30
2018-04-22T13:55:40.228Z,14.20
2018-04-22T13:58:07.255Z,14.20
2018-04-22T14:00:34.790Z,13.80
2018-04-22T14:03:02.047Z,13.60
2018-04-22T14:05:30.636Z,13.30
2018-04-22T14:07:58.013Z,13.30
2018-04-22T14:10:25.065Z,13.30
2018-04-22T14:12:51.917Z,12.90
2018-04-22T14:15:18.762Z,12.80
2018-04-22T14:17:45.507Z,12.80
2018-04-22T14:20:12.258Z,12.90
2018-04-22T14:22:39.209Z,12.90
2018-04-22T14:25:06.023Z,12.90
2018-04-22T14:27:32.752Z,13.00
2018-04-22T14:29:59.876Z,13.10
2018-04-22T14:32:26.701Z,12.90
2018-04-22T14:34:53.453Z,13.10
2018-04-22T14:37:20.176Z,12.90
2018-04-22T14:39:47.459Z,12.90
2018-04-22T14:42:14.199Z,13.10
2018-04-22T14:44:53.406Z,13.20
2018-04-22T14:47:20.892Z,13.20
2018-04-22T14:49:47.641Z,13.20
2018-04-22T14:52:14.486Z,13.20
2018-04-22T14:54:41.205Z,13.10
2018-04-22T14:57:08.675Z,13.40
2018-04-22T14:59:36.159Z,13.40
2018-04-22T15:02:02.908Z,13.30
2018-04-22T15:04:29.858Z,13.40
2018-04-22T15:06:56.710Z,13.30
2018-04-22T15:09:23.455Z,13.40
2018-04-22T15:11:50.517Z,13.40
2018-04-22T15:14:17.234Z,13.50
2018-04-22T15:16:43.881Z,13.70
2018-04-22T15:19:10.673Z,13.80
2018-04-22T15:21:37.593Z,13.80
2018-04-22T15:24:05.264Z,13.60
2018-04-22T15:26:31.978Z,13.60
2018-04-22T15:28:59.538Z,13.40
2018-04-22T15:31:26.320Z,13.40
2018-04-22T15:33:54.398Z,13.40
2018-04-22T15:36:21.959Z,13.40
2018-04-22T15:38:49.036Z,13.30
2018-04-22T15:41:16.615Z,13.40
2018-04-22T15:43:43.735Z,13.40
2018-04-22T15:52:08.340Z,13.70
2018-04-22T15:54:40.191Z,13.40
2018-04-22T15:57:08.560Z,13.40
2018-04-22T15:59:35.642Z,13.40
2018-04-22T16:02:02.390Z,13.30
2018-04-22T16:04:29.043Z,13.10
2018-04-22T16:09:53.200Z,12.80
2018-04-22T16:12:19.971Z,12.30
2018-04-22T16:14:47.647Z,12.20
2018-04-22T16:17:14.691Z,12.20
2018-04-22T16:19:42.106Z,12.00
2018-04-22T16:22:10.023Z,11.60
2018-04-22T16:24:36.770Z,11.60
2018-04-22T16:27:03.518Z,11.50
2018-04-22T16:29:31.121Z,11.30
2018-04-22T16:31:57.828Z,11.30
2018-04-22T16:34:24.580Z,11.30
2018-04-22T16:36:52.139Z,11.10
2018-04-22T16:39:18.782Z,11.10
2018-04-22T16:41:45.635Z,11.00
2018-04-22T16:44:12.585Z,10.90
2018-04-22T16:46:39.333Z,10.90
2018-04-22T16:49:06.491Z,10.80
2018-04-22T16:51:33.382Z,10.70
2018-04-22T16:54:00.064Z,10.60
2018-04-22T16:56:27.950Z,10.50
2018-04-22T16:58:54.907Z,10.50
2018-04-22T17:01:22.018Z,10.40
2018-04-22T17:03:49.215Z,10.30
2018-04-22T17:06:16.373Z,10.20
2018-04-22T17:08:43.426Z,10.10
2018-04-22T17:11:10.475Z,10.00
2018-04-22T17:13:37.199Z,9.90
2018-04-22T17:16:04.687Z,9.70
2018-04-22T17:18:34.760Z,9.60
2018-04-22T17:21:03.399Z,9.50
2018-04-22T17:23:31.166Z,9.40
2018-04-22T17:25:58.834Z,9.40
2018-04-22T17:28:26.458Z,9.30
2018-04-22T17:30:54.065Z,9.20
2018-04-22T17:33:21.499Z,9.10
2018-04-22T17:35:49.399Z,8.90
2018-04-22T17:38:16.766Z,8.80
2018-04-22T17:40:43.914Z,8.80
2018-04-22T17:43:11.177Z,8.80
2018-04-22T17:45:38.225Z,8.80
2018-04-22T17:48:05.278Z,8.70
2018-04-22T17:50:32.334Z,8.70
2018-04-22T17:52:59.338Z,8.60
2018-04-22T17:55:27.305Z,8.40
2018-04-22T17:57:54.315Z,8.40
2018-04-22T18:00:24.787Z,8.20
2018-04-22T18:02:52.632Z,8.10
2018-04-22T18:05:19.567Z,8.00
2018-04-22T18:07:46.186Z,7.90
2018-04-22T18:10:12.934Z,7.80
2018-04-22T18:12:39.699Z,7.60
2018-04-22T18:15:06.448Z,7.50
2018-04-22T18:17:33.143Z,7.30
2018-04-22T18:19:59.939Z,7.30
2018-04-22T18:22:26.686Z,7.20
2018-04-22T18:24:53.430Z,7.20
2018-04-22T18:27:20.397Z,7.10
2018-04-22T18:29:47.234Z,7.00
2018-04-22T18:32:13.979Z,6.80
2018-04-22T18:34:40.723Z,6.70
2018-04-22T18:37:08.085Z,6.60
2018-04-22T18:39:34.927Z,6.50
2018-04-22T18:42:02.605Z,6.40
2018-04-22T18:44:29.755Z,6.30
2018-04-22T18:46:59.663Z,6.30
2018-04-22T18:49:26.933Z,6.20
2018-04-22T18:51:54.110Z,6.00
2018-04-22T18:54:22.455Z,5.90
2018-04-22T18:56:51.743Z,5.80
2018-04-22T18:59:20.805Z,5.70
2018-04-22T19:01:50.478Z,5.70
2018-04-22T19:04:20.250Z,5.50
2018-04-22T19:06:50.184Z,5.40
2018-04-22T19:09:20.347Z,5.20
2018-04-22T19:11:50.291Z,5.20
2018-04-22T19:14:17.832Z,5.10
2018-04-22T19:16:44.754Z,5.00
2018-04-22T19:19:13.369Z,4.90
2018-04-22T19:21:40.221Z,4.90
2018-04-22T19:24:08.992Z,4.90
2018-04-22T19:26:39.688Z,4.70
2018-04-22T19:29:08.660Z,4.70
2018-04-22T19:31:39.124Z,4.60
2018-04-22T19:34:08.524Z,4.50
2018-04-22T19:36:37.630Z,4.50
2018-04-22T19:39:08.060Z,4.30
2018-04-22T19:41:38.538Z,4.30
2018-04-22T19:44:06.622Z,4.20
2018-04-22T19:46:34.779Z,4.10
2018-04-22T19:49:02.240Z,4.10
2018-04-22T19:51:30.339Z,3.90
2018-04-22T19:53:57.288Z,3.90
2018-04-22T19:56:24.239Z,3.90
2018-04-22T19:58:51.192Z,3.80
2018-04-22T20:01:17.938Z,3.80
2018-04-22T20:03:45.690Z,3.80
2018-04-22T20:06:14.806Z,3.70
2018-04-22T20:08:42.684Z,3.70
2018-04-22T20:11:10.661Z,3.60
2018-04-22T20:13:38.513Z,3.50
2018-04-22T20:16:05.581Z,3.50
2018-04-22T20:18:33.144Z,3.50
2018-04-22T20:21:00.990Z,3.40
2018-04-22T20:23:29.299Z,3.30
2018-04-22T20:25:56.247Z,3.30
2018-04-22T20:28:23.096Z,3.30
2018-04-22T20:30:50.436Z,3.30
2018-04-22T20:33:17.823Z,3.30
2018-04-22T20:35:44.668Z,3.20
2018-04-22T20:38:11.315Z,3.20
2018-04-22T20:40:38.158Z,3.20
2018-04-22T20:43:05.396Z,3.20
2018-04-22T20:45:32.981Z,3.10
2018-04-22T20:47:59.728Z,3.10
2018-04-22T20:50:27.277Z,3.00
2018-04-22T20:52:54.946Z,2.90
2018-04-22T20:55:22.013Z,2.90
2018-04-22T20:57:48.965Z,2.80
2018-04-22T21:00:16.020Z,2.80
2018-04-22T21:02:44.096Z,2.80
2018-04-22T21:05:10.814Z,2.80
2018-04-22T21:07:38.300Z,2.60
2018-04-22T21:10:06.418Z,2.60
2018-04-22T21:12:33.635Z,2.60
2018-04-22T21:15:00.999Z,2.60
2018-04-22T21:17:28.867Z,2.50
2018-04-22T21:19:56.332Z,2.50
2018-04-22T21:22:23.589Z,2.40
2018-04-22T21:24:51.360Z,2.30
2018-04-22T21:27:18.208Z,2.30
2018-04-22T21:29:44.954Z,2.30
2018-04-22T21:32:14.033Z,2.30
2018-04-22T21:34:41.702Z,2.30
2018-04-22T21:37:09.697Z,2.20
2018-04-22T21:39:38.931Z,2.20
2018-04-22T21:42:06.259Z,2.10
2018-04-22T21:44:33.826Z,2.10
2018-04-22T21:47:00.984Z,2.10
2018-04-22T21:49:27.684Z,2.10
2018-04-22T21:51:55.903Z,2.00
2018-04-22T21:54:22.653Z,2.00
2018-04-22T21:56:49.705Z,2.00
2018-04-22T21:59:16.552Z,1.90
2018-04-22T22:01:44.037Z,1.90
2018-04-22T22:04:10.975Z,1.90
2018-04-22T22:06:39.436Z,1.80
2018-04-22T22:09:06.507Z,1.80
2018-04-22T22:11:33.458Z,1.80
2018-04-22T22:14:01.725Z,1.90
2018-04-22T22:16:29.511Z,1.80
2018-04-22T22:18:56.257Z,1.70
2018-04-22T22:21:23.312Z,1.70
2018-04-22T22:23:50.158Z,1.60
2018-04-22T22:26:16.903Z,1.60
2018-04-22T22:28:43.958Z,1.50
2018-04-22T22:31:11.423Z,1.50
2018-04-22T22:33:38.167Z,1.40
2018-04-22T22:36:04.914Z,1.40
2018-04-22T22:38:32.578Z,1.20
2018-04-22T22:41:00.116Z,1.30
2018-04-22T22:43:26.890Z,1.20
2018-04-22T22:45:53.739Z,1.30
2018-04-22T22:48:20.694Z,1.20
2018-04-22T22:50:47.436Z,1.20
2018-04-22T22:53:14.296Z,1.20
2018-04-22T22:55:41.135Z,1.10
2018-04-22T22:58:07.880Z,1.00
2018-04-22T23:00:34.727Z,1.00
2018-04-22T23:03:02.293Z,0.90
2018-04-22T23:05:29.040Z,0.90
2018-04-22T23:07:55.889Z,0.90
2018-04-22T23:10:22.634Z,0.90
2018-04-22T23:12:49.486Z,0.90
2018-04-22T23:15:16.228Z,1.00
2018-04-22T23:17:42.975Z,1.00
2018-04-22T23:20:09.720Z,1.00
2018-04-22T23:22:36.469Z,0.90
2018-04-22T23:25:03.214Z,0.90
2018-04-22T23:39:18.005Z,0.70
2018-04-22T23:41:44.857Z,0.70
2018-04-22T23:44:11.705Z,0.60
2018-04-22T23:46:38.655Z,0.60
2018-04-22T23:49:05.606Z,0.60
2018-04-22T23:51:32.351Z,0.60
2018-04-22T23:53:59.098Z,0.60
2018-04-22T23:56:25.846Z,0.60
2018-04-22T23:58:52.899Z,0.60
